Strona główna
METAR-TAF:

METAR-TAF

Lotnisko :

Wittering, Anglia

Szerokość geograficzna: 52-37N, Długość geograficzna: 000-28W, wysokość: 84 m

Aktualna obserwacja pogody

Raport powstał 56 minut temu, godzina 05:50 UTC
Wiatr 8 kt od północ
Temperatura 12°C
Wilgotność 82%
Ciśnienie 1024 hPa
Widzialność 10 km lub więcej
Brak chmur poniżej 1500 m i brak chmur cumulonimbus

METAR: EGXT 010550Z 01008KT CAVOK 12/09 Q1024 BLU

czas: 07:46 (06:46 UTC)

Prognoza

Raport powstał 2 godziny i 9 minut temu, godzina 04:37 UTC
Prognoza ważna od 01 godzina 06 UTC do 01 godzina 15 UTC
Wiatr 8 kt od północny wschód
Widzialność 10 km lub więcej
Mało chmury na wysokości 4500 ft

TAF: EGXT 010437Z 0106/0115 04008KT 9999 FEW045

Obserwacja i prognoza pogody dla ponad 4000 lotnisk (raport METAR i TAF).

Dostępne stacje oznaczono żółtymi i czerwonymi punktami na mapie.

Najedź kursorem aby zobaczyć nazwę stacji.

Kliknij aby zobaczyć obserwacje i prognozy pogody.

Aby zmienić mapę: kliknij na zielony przycisk z czarnym krzyżykiem, aby powiększyć; na zielony przycisk z myślnikiem, aby pomniejszyć; na zielone strzałki, aby przejść do map sąsiednich.


METAR-TAF: